Time;durP1;ratioP1;P1;durP2;ratioP2;P2;SDS_P1;SDS_P2;PMS_P1;PMS_P2;Temp;Humidity;BMP_temperature;BMP_pressure;BME280_temperature;BME280_humidity;BME280_pressure;Samples;Min_cycle;Max_cycle;Signal;HPM_P1;HPM_P2
2021/06/14 00:01:52;;;;;;;2.03;1.17;;;;;;;16.48;47.79;94912.97;4946631;29;20044;-83
2021/06/14 00:04:23;;;;;;;4.75;1.73;;;;;;;16.47;47.71;94911.41;4945789;29;20035;-83
2021/06/14 00:06:48;;;;;;;2.90;1.35;;;;;;;16.35;47.97;94908.28;4937803;29;20133;-82
2021/06/14 00:09:19;;;;;;;5.75;1.77;;;;;;;16.34;47.78;94917.22;4947192;28;20613;-82
2021/06/14 00:11:44;;;;;;;2.33;1.70;;;;;;;16.33;47.46;94910.38;4935882;29;20043;-82
2021/06/14 00:14:10;;;;;;;1.60;1.50;;;;;;;16.30;48.01;94913.53;4943694;29;20058;-83
2021/06/14 00:16:36;;;;;;;5.70;1.45;;;;;;;16.23;48.31;94919.03;4946834;29;20179;-82
2021/06/14 00:19:06;;;;;;;5.97;1.75;;;;;;;16.23;48.34;94916.41;4946943;29;20035;-82
2021/06/14 00:21:32;;;;;;;6.75;1.77;;;;;;;16.25;48.02;94908.28;4947006;29;20046;-82
2021/06/14 00:23:57;;;;;;;2.33;1.35;;;;;;;16.21;48.08;94903.56;4946872;28;20043;-82
2021/06/14 00:26:23;;;;;;;3.45;1.67;;;;;;;16.27;48.08;94900.94;4955061;29;20047;-82
2021/06/14 00:28:48;;;;;;;1.77;1.67;;;;;;;16.30;47.86;94900.44;4954273;29;20123;-81
2021/06/14 00:31:14;;;;;;;4.45;1.70;;;;;;;16.30;47.64;94906.47;4955645;29;20690;-81
2021/06/14 00:33:40;;;;;;;6.30;1.63;;;;;;;16.36;47.72;94907.22;4963451;28;20504;-81
2021/06/14 00:36:06;;;;;;;4.20;1.35;;;;;;;16.37;47.78;94906.97;4922274;29;20027;-82
2021/06/14 00:38:37;;;;;;;5.70;1.30;;;;;;;16.37;47.99;94895.69;4947880;29;20050;-82
2021/06/14 00:41:04;;;;;;;6.72;1.77;;;;;;;16.38;47.96;94889.38;4948239;29;20042;-82
2021/06/14 00:43:29;;;;;;;5.32;1.77;;;;;;;16.39;48.08;94898.81;4948208;29;20032;-83
2021/06/14 00:45:56;;;;;;;4.65;1.90;;;;;;;16.43;48.17;94899.84;4931859;29;20045;-83
2021/06/14 00:48:22;;;;;;;2.67;1.75;;;;;;;16.43;47.93;94895.41;4947647;28;20116;-81
2021/06/14 00:50:58;;;;;;;2.88;1.52;;;;;;;16.43;48.26;94891.97;4949289;29;20737;-81
2021/06/14 00:53:29;;;;;;;6.05;1.80;;;;;;;16.40;48.14;94895.13;4940085;29;20039;-82
2021/06/14 00:55:55;;;;;;;5.43;1.75;;;;;;;16.37;48.32;94893.06;4930166;29;20480;-82
2021/06/14 00:58:21;;;;;;;9.30;1.90;;;;;;;16.34;48.51;94889.13;4947631;29;20526;-81
2021/06/14 01:00:46;;;;;;;6.93;2.00;;;;;;;16.30;48.70;94880.22;4954502;28;20031;-81
2021/06/14 01:03:12;;;;;;;11.70;1.90;;;;;;;16.27;48.73;94891.25;4963302;28;20032;-81
2021/06/14 01:06:01;;;;;;;8.90;2.15;;;;;;;16.26;48.41;94889.66;4938439;29;20067;-80
2021/06/14 01:08:26;;;;;;;10.27;2.10;;;;;;;16.20;48.61;94882.84;4938977;29;20058;-81
2021/06/14 01:10:52;;;;;;;4.97;1.98;;;;;;;16.15;48.81;94888.91;4966460;28;20035;-82
2021/06/14 01:13:32;;;;;;;7.63;2.20;;;;;;;16.09;49.12;94878.66;4963803;28;20110;-82
2021/06/14 01:16:35;;;;;;;4.97;2.05;;;;;;;16.01;49.29;94879.97;4945950;28;20056;-82
2021/06/14 01:21:56;;;;;;;7.47;2.28;;;;;;;15.95;49.55;94873.19;4993422;23;20063;-81
2021/06/14 01:24:30;;;;;;;2.42;1.60;;;;;;;15.95;49.82;94867.16;4958726;28;20047;-81
2021/06/14 01:27:06;;;;;;;6.68;2.28;;;;;;;15.96;49.74;94866.88;4951455;23;20074;-81
2021/06/14 01:29:35;;;;;;;9.15;2.38;;;;;;;15.98;49.67;94867.41;4943803;29;20052;-81
2021/06/14 01:32:01;;;;;;;9.63;2.03;;;;;;;16.07;49.53;94870.25;4956571;29;20561;-82
2021/06/14 01:34:28;;;;;;;4.70;2.17;;;;;;;16.04;50.00;94871.59;4953532;28;20043;-81
2021/06/14 01:36:56;;;;;;;5.30;2.10;;;;;;;16.07;49.68;94870.25;4962301;28;20066;-80
2021/06/14 01:39:22;;;;;;;5.82;1.98;;;;;;;16.05;49.56;94873.16;4937086;29;20544;-81
2021/06/14 01:41:48;;;;;;;8.73;2.20;;;;;;;16.07;50.16;94870.25;4962384;28;20032;-81
2021/06/14 01:44:13;;;;;;;10.13;2.10;;;;;;;16.10;49.50;94875.75;4956282;23;20507;-80
2021/06/14 01:46:39;;;;;;;10.07;2.28;;;;;;;16.07;50.38;94876.28;4929220;29;20036;-80
2021/06/14 01:49:08;;;;;;;8.93;2.30;;;;;;;16.13;49.94;94877.88;4934847;29;20039;-82
2021/06/14 01:51:34;;;;;;;10.40;2.33;;;;;;;16.17;49.46;94883.38;4942498;23;20039;-82
2021/06/14 01:54:03;;;;;;;5.22;2.15;;;;;;;16.15;49.63;94867.91;4930326;29;20039;-81
2021/06/14 01:56:36;;;;;;;11.25;1.95;;;;;;;16.15;49.85;94875.00;4927880;29;20557;-82
2021/06/14 01:59:03;;;;;;;7.40;1.90;;;;;;;16.13;49.47;94874.47;4934979;29;20368;-82
2021/06/14 02:01:29;;;;;;;4.07;2.20;;;;;;;16.11;49.39;94872.13;4929660;29;20042;-82
2021/06/14 02:03:56;;;;;;;6.60;2.28;;;;;;;16.09;49.87;94873.41;4968425;23;20040;-82
2021/06/14 02:06:25;;;;;;;7.28;2.33;;;;;;;16.05;50.17;94870.53;4946650;29;20130;-80
2021/06/14 02:08:51;;;;;;;9.52;1.80;;;;;;;16.01;50.05;94879.97;4962855;28;20111;-80
2021/06/14 02:11:17;;;;;;;4.82;1.98;;;;;;;16.00;49.90;94872.38;4945188;28;20043;-81
2021/06/14 02:13:43;;;;;;;11.27;1.85;;;;;;;15.94;50.17;94871.56;4960011;28;20512;-82
2021/06/14 02:16:09;;;;;;;11.25;2.33;;;;;;;15.85;50.41;94878.41;4954142;23;20059;-81
2021/06/14 02:18:35;;;;;;;8.68;1.98;;;;;;;15.80;50.49;94876.59;4955703;29;20495;-81
2021/06/14 02:21:00;;;;;;;3.78;2.10;;;;;;;15.78;50.82;94883.94;4938175;29;20079;-81
2021/06/14 02:23:26;;;;;;;6.55;2.20;;;;;;;15.77;51.13;94876.31;4919880;29;20408;-81
2021/06/14 02:25:51;;;;;;;5.55;2.00;;;;;;;15.72;50.97;94874.47;4936579;29;20036;-81
2021/06/14 02:28:17;;;;;;;8.10;2.28;;;;;;;15.69;51.37;94877.63;4951997;29;20027;-81
2021/06/14 02:30:42;;;;;;;3.50;1.92;;;;;;;15.70;51.45;94875.78;4935770;29;20115;-81
2021/06/14 02:33:08;;;;;;;3.38;2.17;;;;;;;15.60;51.30;94861.63;4952221;23;20044;-82
2021/06/14 02:35:33;;;;;;;9.60;2.45;;;;;;;15.64;51.83;94876.84;4948462;29;20046;-82
2021/06/14 02:38:04;;;;;;;11.02;2.25;;;;;;;15.63;51.59;94870.03;4954351;29;20110;-82
2021/06/14 02:40:31;;;;;;;5.00;1.95;;;;;;;15.65;51.68;94878.41;4952852;29;20043;-81
2021/06/14 02:43:02;;;;;;;4.60;2.38;;;;;;;15.62;51.93;94874.50;4946178;28;20052;-81
2021/06/14 02:45:28;;;;;;;11.70;2.60;;;;;;;15.59;51.96;94875.78;4929258;28;20035;-81
2021/06/14 02:47:54;;;;;;;3.92;1.95;;;;;;;15.58;51.84;94879.41;4921434;29;20048;-81
2021/06/14 02:50:19;;;;;;;3.00;2.30;;;;;;;15.59;51.84;94875.78;4952990;29;20520;-84
2021/06/14 02:52:47;;;;;;;3.28;2.22;;;;;;;15.57;52.14;94877.06;4946382;29;20043;-82
2021/06/14 02:55:16;;;;;;;9.32;2.85;;;;;;;15.48;52.41;94874.19;4952317;29;20401;-80
2021/06/14 02:57:49;;;;;;;12.77;2.45;;;;;;;15.52;51.86;94877.84;4936069;23;20036;-80
2021/06/14 03:00:16;;;;;;;7.30;2.78;;;;;;;15.52;52.07;94875.22;4938560;29;20110;-82
2021/06/14 03:02:42;;;;;;;2.75;2.20;;;;;;;15.51;52.08;94878.09;4946483;29;20594;-82
2021/06/14 03:05:08;;;;;;;9.38;2.42;;;;;;;15.51;52.53;94878.91;4957825;29;20015;-82
2021/06/14 03:07:34;;;;;;;8.30;2.13;;;;;;;15.44;52.34;94878.34;4965318;28;20034;-82
2021/06/14 03:09:59;;;;;;;3.88;2.33;;;;;;;15.48;52.43;94876.00;4964589;29;20020;-82
2021/06/14 03:12:25;;;;;;;5.30;2.47;;;;;;;15.45;52.62;94872.06;4942083;29;20050;-83
2021/06/14 03:14:50;;;;;;;5.50;2.65;;;;;;;15.48;52.05;94878.63;4948741;29;20689;-82
2021/06/14 03:17:16;;;;;;;10.20;2.55;;;;;;;15.52;52.52;94883.09;4922330;29;20031;-80
2021/06/14 03:19:41;;;;;;;9.07;2.53;;;;;;;15.55;52.03;94882.56;4963565;29;20047;-84
2021/06/14 03:22:09;;;;;;;6.45;2.22;;;;;;;15.61;51.78;94888.63;4967362;28;20062;-82
2021/06/14 03:24:35;;;;;;;9.88;3.15;;;;;;;15.65;52.30;94888.91;4943081;29;20047;-82
2021/06/14 03:27:01;;;;;;;9.25;2.53;;;;;;;15.69;52.02;94889.94;4947126;29;20078;-82
2021/06/14 03:29:26;;;;;;;9.48;2.75;;;;;;;15.76;52.19;94887.84;4965814;23;20047;-83
2021/06/14 03:31:52;;;;;;;10.90;3.05;;;;;;;15.82;52.01;94886.81;4956895;28;20435;-83
2021/06/14 03:34:18;;;;;;;6.05;2.60;;;;;;;15.84;51.82;94887.34;4952867;29;20581;-83
2021/06/14 03:36:46;;;;;;;7.32;2.80;;;;;;;15.90;51.83;94886.28;4935548;29;20040;-82
2021/06/14 03:39:17;;;;;;;26.20;2.90;;;;;;;15.92;51.35;94873.69;5021170;23;20068;-82
2021/06/14 03:41:46;;;;;;;12.48;2.97;;;;;;;15.94;51.30;94881.28;4973395;28;20175;-81
2021/06/14 03:44:12;;;;;;;3.42;2.30;;;;;;;16.03;51.49;94880.50;4942586;29;20429;-83
2021/06/14 03:46:50;;;;;;;6.30;2.22;;;;;;;16.05;51.16;94878.41;4936520;29;20684;-83
2021/06/14 03:49:15;;;;;;;6.57;2.45;;;;;;;16.18;50.97;94883.13;4936657;29;20131;-82
2021/06/14 03:51:41;;;;;;;4.93;2.60;;;;;;;16.24;50.70;94877.84;4937028;29;20965;-83
2021/06/14 03:54:07;;;;;;;10.75;2.40;;;;;;;16.32;51.03;94877.31;4943504;23;20038;-82
2021/06/14 03:56:33;;;;;;;5.82;2.72;;;;;;;16.49;50.16;94867.31;4957057;28;20081;-83
2021/06/14 03:58:59;;;;;;;9.02;2.25;;;;;;;16.68;49.43;94873.56;4959242;28;20043;-80
2021/06/14 04:01:24;;;;;;;5.78;1.60;;;;;;;16.98;48.54;94859.53;4932556;29;20583;-82
2021/06/14 04:06:39;;;;;;;6.85;2.00;;;;;;;21.37;38.06;94853.56;4949357;29;20515;-81
2021/06/14 04:09:04;;;;;;;4.72;1.80;;;;;;;23.57;33.75;94855.53;4962872;28;20039;-81
2021/06/14 04:11:30;;;;;;;7.63;1.75;;;;;;;25.38;30.68;94861.38;4950356;29;20085;-85
2021/06/14 04:13:56;;;;;;;3.38;1.55;;;;;;;27.17;27.70;94858.34;4965827;28;20035;-85
2021/06/14 04:16:21;;;;;;;3.83;1.23;;;;;;;28.73;25.54;94867.22;4963319;28;20070;-84
2021/06/14 04:18:47;;;;;;;5.15;1.48;;;;;;;30.34;23.72;94850.78;4949993;28;20567;-85
2021/06/14 04:21:13;;;;;;;9.00;1.65;;;;;;;32.23;20.91;94859.69;4950767;29;20066;-84
2021/06/14 04:23:39;;;;;;;6.97;1.67;;;;;;;33.51;18.99;94869.97;4950682;29;20047;-85
2021/06/14 04:26:04;;;;;;;4.65;1.25;;;;;;;32.66;20.42;94862.78;4955688;29;20439;-85
2021/06/14 04:28:29;;;;;;;3.95;1.20;;;;;;;31.78;20.62;94860.69;4965410;28;20076;-85
2021/06/14 04:30:55;;;;;;;5.63;1.20;;;;;;;32.31;20.13;94865.16;4949237;29;20114;-84
2021/06/14 04:33:20;;;;;;;7.40;1.77;;;;;;;33.88;18.41;94862.50;4953504;29;20054;-86
2021/06/14 04:35:46;;;;;;;4.70;1.23;;;;;;;35.52;16.42;94857.28;4948349;29;20143;-85
2021/06/14 04:38:20;;;;;;;2.83;1.00;;;;;;;36.25;16.36;94859.31;4946980;29;20098;-84
2021/06/14 04:40:46;;;;;;;5.05;1.25;;;;;;;36.82;15.57;94865.19;4947956;29;20055;-84
2021/06/14 04:45:53;;;;;;;16.67;1.98;;;;;;;38.48;14.70;94860.34;4969814;28;20050;-83
2021/06/14 04:48:18;;;;;;;10.45;1.20;;;;;;;39.13;13.32;94850.81;4967957;28;20047;-83
2021/06/14 04:50:45;;;;;;;15.07;1.70;;;;;;;39.96;13.06;94847.34;4967239;28;20035;-82
2021/06/14 04:53:10;;;;;;;7.63;1.10;;;;;;;41.04;12.36;94848.06;4966318;28;20038;-83
2021/06/14 04:55:38;;;;;;;7.47;0.95;;;;;;;41.64;11.36;94848.44;4984245;28;20031;-82
2021/06/14 05:00:30;;;;;;;6.10;1.27;;;;;;;42.27;11.21;94858.03;4946950;23;20058;-83
2021/06/14 05:02:59;;;;;;;2.22;1.52;;;;;;;42.24;11.01;94859.69;4939376;29;20044;-84
2021/06/14 05:05:24;;;;;;;5.22;1.00;;;;;;;41.63;11.46;94857.06;4939822;29;20179;-83
2021/06/14 05:07:49;;;;;;;8.85;1.17;;;;;;;41.38;11.51;94868.69;4938302;29;20035;-83
2021/06/14 05:10:15;;;;;;;2.45;0.95;;;;;;;40.80;12.02;94874.72;4936501;29;20069;-83
2021/06/14 05:12:41;;;;;;;9.43;1.40;;;;;;;40.24;12.22;94876.75;4937824;29;20036;-83
2021/06/14 05:15:07;;;;;;;6.93;1.67;;;;;;;40.10;12.11;94866.13;4952176;28;20032;-82
2021/06/14 05:17:32;;;;;;;9.48;1.25;;;;;;;41.11;11.71;94876.34;4936093;29;20098;-83
2021/06/14 05:19:58;;;;;;;12.27;1.45;;;;;;;42.27;11.45;94871.69;4936931;29;20027;-84
2021/06/14 05:22:23;;;;;;;13.13;1.33;;;;;;;43.17;10.74;94875.97;4936669;29;20042;-82
2021/06/14 05:24:49;;;;;;;13.73;1.40;;;;;;;44.15;9.89;94864.78;4937341;29;20061;-83
2021/06/14 05:27:14;;;;;;;8.45;1.58;;;;;;;45.08;9.62;94872.94;4921038;29;20050;-82
2021/06/14 05:29:39;;;;;;;8.07;1.40;;;;;;;45.77;8.89;94879.88;4920177;29;20035;-82
2021/06/14 05:32:06;;;;;;;4.13;1.42;;;;;;;46.73;8.36;94872.78;4918080;29;20096;-82
2021/06/14 05:34:31;;;;;;;10.43;1.33;;;;;;;47.87;8.19;94872.69;4936729;29;20122;-83
2021/06/14 05:36:56;;;;;;;11.07;1.33;;;;;;;47.36;8.05;94876.44;4938210;29;20058;-82
2021/06/14 05:39:22;;;;;;;14.18;3.58;;;;;;;44.74;9.22;94875.84;4937153;29;20032;-82
2021/06/14 05:41:48;;;;;;;6.63;1.73;;;;;;;41.79;11.47;94865.25;4936468;29;20404;-84
2021/06/14 05:44:14;;;;;;;12.02;2.60;;;;;;;38.45;13.48;94872.81;4920730;29;20032;-83
2021/06/14 05:46:43;;;;;;;8.10;2.05;;;;;;;36.56;15.43;94865.75;4920609;29;20049;-82
2021/06/14 05:49:08;;;;;;;2.83;1.33;;;;;;;34.86;16.54;94859.66;4920481;29;20574;-83
2021/06/14 05:51:34;;;;;;;7.32;2.00;;;;;;;33.69;17.65;94868.19;4937225;29;20028;-83
2021/06/14 05:54:00;;;;;;;7.78;1.88;;;;;;;32.77;18.97;94863.66;4937433;29;20031;-83
2021/06/14 05:56:25;;;;;;;6.45;1.60;;;;;;;33.72;18.12;94862.78;4936314;29;20070;-83
2021/06/14 05:58:51;;;;;;;10.05;2.45;;;;;;;35.05;17.39;94848.44;4935932;29;20262;-83
2021/06/14 06:01:16;;;;;;;3.50;1.58;;;;;;;36.51;15.80;94839.06;4937228;29;20508;-83
2021/06/14 06:03:44;;;;;;;8.25;1.40;;;;;;;38.36;14.46;94854.28;4937012;29;20036;-83
2021/06/14 06:06:09;;;;;;;8.70;1.98;;;;;;;39.20;13.91;94833.59;4991464;23;20045;-81
2021/06/14 06:08:35;;;;;;;7.43;1.88;;;;;;;40.84;12.90;94841.16;4955737;29;20474;-82
2021/06/14 06:11:01;;;;;;;18.52;2.88;;;;;;;42.05;11.31;94841.47;4953161;28;20059;-83
2021/06/14 06:13:26;;;;;;;4.05;1.40;;;;;;;41.89;10.65;94844.31;4938988;29;20044;-84
2021/06/14 06:15:52;;;;;;;6.43;1.45;;;;;;;41.75;11.18;94841.97;4937230;29;20039;-83
2021/06/14 06:18:17;;;;;;;5.18;1.30;;;;;;;41.69;11.20;94844.47;4934868;29;20020;-83
2021/06/14 06:20:42;;;;;;;6.32;1.40;;;;;;;42.48;10.44;94853.91;4919209;29;20031;-83
2021/06/14 06:23:08;;;;;;;8.02;1.48;;;;;;;42.48;10.92;94846.47;4951221;29;20490;-83
2021/06/14 06:25:34;;;;;;;12.27;1.30;;;;;;;43.39;10.01;94843.94;4934184;29;20419;-82
2021/06/14 06:28:24;;;;;;;7.88;1.13;;;;;;;43.52;9.62;94835.69;4938806;29;20036;-81
2021/06/14 06:30:50;;;;;;;4.60;1.30;;;;;;;43.43;9.56;94844.59;4935478;29;20048;-83
2021/06/14 06:33:16;;;;;;;2.22;1.00;;;;;;;43.47;9.29;94838.25;4935681;29;20495;-83
2021/06/14 06:35:41;;;;;;;8.07;1.90;;;;;;;42.81;10.30;94832.56;4927037;29;20032;-83
2021/06/14 06:38:07;;;;;;;8.68;2.20;;;;;;;42.92;10.05;94832.25;4919999;29;20175;-84
2021/06/14 06:40:32;;;;;;;3.45;1.77;;;;;;;43.35;9.87;94840.59;4926650;29;20027;-82
2021/06/14 06:42:58;;;;;;;6.40;1.30;;;;;;;43.30;9.87;94832.94;4926234;29;20575;-82
2021/06/14 06:45:24;;;;;;;7.47;1.33;;;;;;;41.90;10.29;94815.78;4917304;23;20036;-82
2021/06/14 06:47:49;;;;;;;4.78;1.10;;;;;;;37.90;12.57;94833.16;4956395;28;20043;-82
2021/06/14 06:50:15;;;;;;;3.30;1.42;;;;;;;35.67;14.34;94826.31;4976934;28;20109;-82
2021/06/14 06:52:41;;;;;;;4.13;1.30;;;;;;;34.18;15.95;94820.97;4950185;28;20055;-83
2021/06/14 06:55:08;;;;;;;5.75;1.80;;;;;;;32.99;17.47;94831.53;4965565;28;20084;-82
2021/06/14 06:57:33;;;;;;;7.78;1.30;;;;;;;31.69;18.92;94824.44;4981160;28;20178;-82
2021/06/14 06:59:58;;;;;;;8.52;2.10;;;;;;;30.48;20.28;94824.22;4968668;28;20471;-82
2021/06/14 07:02:25;;;;;;;11.25;1.80;;;;;;;30.10;20.60;94816.22;4928917;28;20101;-82
2021/06/14 07:04:50;;;;;;;11.82;1.80;;;;;;;29.94;20.43;94805.59;4970490;28;20104;-82
2021/06/14 07:07:16;;;;;;;5.35;1.90;;;;;;;30.26;20.63;94805.41;4975852;28;20034;-81
2021/06/14 07:09:48;;;;;;;2.90;1.30;;;;;;;30.94;19.53;94805.41;4977664;28;20039;-82
2021/06/14 07:12:13;;;;;;;7.40;1.67;;;;;;;31.46;19.25;94801.13;4966347;28;20027;-82
2021/06/14 07:14:39;;;;;;;12.82;1.70;;;;;;;31.39;18.30;94795.66;4948938;28;20042;-82
2021/06/14 07:17:04;;;;;;;5.63;1.40;;;;;;;31.35;19.17;94805.59;4933888;28;20038;-82
2021/06/14 07:19:30;;;;;;;2.55;1.77;;;;;;;31.52;18.71;94799.66;4969286;28;20046;-82
2021/06/14 07:21:55;;;;;;;8.68;1.23;;;;;;;31.44;18.66;94798.03;4976588;28;20031;-83
2021/06/14 07:32:01;;;;;;;5.13;1.77;;;;;;;30.23;19.63;94812.25;5222838;23;20059;-81
2021/06/14 07:34:27;;;;;;;1.17;1.05;;;;;;;29.87;18.80;94805.44;4935590;29;20043;-80
2021/06/14 07:36:52;;;;;;;3.80;1.23;;;;;;;29.49;19.64;94814.28;4921828;29;20074;-81
2021/06/14 07:39:18;;;;;;;6.10;1.20;;;;;;;28.57;19.60;94816.38;4921345;29;20052;-81
2021/06/14 07:41:43;;;;;;;4.15;1.67;;;;;;;28.00;20.72;94808.81;4935752;29;20048;-82
2021/06/14 07:44:09;;;;;;;6.50;1.83;;;;;;;27.50;22.42;94804.78;4937954;29;20036;-82
2021/06/14 07:46:34;;;;;;;7.05;1.65;;;;;;;27.16;22.16;94814.06;4918813;29;20046;-83
2021/06/14 07:49:00;;;;;;;4.07;2.28;;;;;;;26.63;23.25;94807.88;4889729;29;20036;-83
2021/06/14 07:51:26;;;;;;;13.55;2.28;;;;;;;26.14;23.99;94812.34;4905747;29;20036;-82
2021/06/14 07:53:51;;;;;;;6.10;2.35;;;;;;;25.72;24.04;94801.78;4905569;29;20068;-82
2021/06/14 07:56:19;;;;;;;4.32;1.50;;;;;;;25.26;25.21;94794.78;4905262;29;20492;-84
2021/06/14 07:58:45;;;;;;;11.70;1.95;;;;;;;25.03;25.89;94796.97;4958571;23;20515;-83
2021/06/14 08:01:10;;;;;;;1.92;1.27;;;;;;;24.61;26.77;94806.72;4943124;29;20035;-83
2021/06/14 08:03:36;;;;;;;3.83;1.80;;;;;;;24.20;27.30;94802.78;4940878;29;20044;-83
2021/06/14 08:06:04;;;;;;;4.10;1.58;;;;;;;23.76;26.86;94804.78;4907594;29;20124;-83
2021/06/14 08:08:30;;;;;;;5.07;1.80;;;;;;;23.47;28.79;94807.28;4923831;29;20499;-83
2021/06/14 08:10:56;;;;;;;3.30;1.42;;;;;;;22.99;29.14;94810.81;4937428;29;20045;-83
2021/06/14 08:13:22;;;;;;;6.78;2.03;;;;;;;22.70;30.05;94800.75;4940892;29;20035;-83
2021/06/14 08:15:47;;;;;;;8.07;3.47;;;;;;;22.37;31.11;94810.91;4936758;29;20035;-83
2021/06/14 08:18:28;;;;;;;17.92;11.27;;;;;;;21.93;31.83;94823.13;4939833;29;20032;-82
2021/06/14 08:26:11;;;;;;;14.98;2.17;;;;;;;20.66;34.54;94826.72;4995001;23;20033;-83
2021/06/14 08:28:44;;;;;;;3.22;1.88;;;;;;;20.48;35.40;94819.66;4978165;28;20043;-83
2021/06/14 08:31:09;;;;;;;10.13;3.42;;;;;;;20.34;36.27;94824.91;4961742;28;20046;-83
2021/06/14 08:33:35;;;;;;;5.22;2.60;;;;;;;20.18;36.93;94825.50;4942628;29;20035;-84
2021/06/14 08:36:00;;;;;;;11.55;2.60;;;;;;;20.09;37.31;94831.44;4957798;28;20420;-84
2021/06/14 08:38:25;;;;;;;5.53;2.20;;;;;;;19.98;37.80;94837.16;4957882;28;20035;-82
2021/06/14 08:40:55;;;;;;;2.80;1.70;;;;;;;19.89;37.57;94828.34;4959585;28;20035;-83
2021/06/14 08:43:20;;;;;;;6.30;2.45;;;;;;;19.92;37.79;94830.41;4957585;28;20027;-82
2021/06/14 08:45:50;;;;;;;11.10;2.50;;;;;;;20.00;37.63;94837.66;4972561;28;20032;-82
2021/06/14 08:48:21;;;;;;;8.32;2.15;;;;;;;20.11;38.20;94831.13;4958102;29;20027;-85
2021/06/14 08:50:53;;;;;;;7.00;2.47;;;;;;;20.36;38.27;94817.47;4957783;29;20039;-82
2021/06/14 08:53:19;;;;;;;3.08;1.75;;;;;;;20.71;37.13;94822.41;4957741;29;20031;-82
2021/06/14 08:55:45;;;;;;;9.45;2.08;;;;;;;21.12;36.04;94827.63;4956043;28;20039;-82
2021/06/14 08:58:13;;;;;;;8.63;1.60;;;;;;;21.61;35.46;94826.03;4959262;28;20102;-82
2021/06/14 09:00:38;;;;;;;4.18;1.83;;;;;;;22.01;34.67;94817.13;4958085;28;20498;-82
2021/06/14 09:03:04;;;;;;;2.42;1.70;;;;;;;22.27;33.60;94796.06;4942092;29;20039;-82
2021/06/14 09:05:30;;;;;;;4.25;1.67;;;;;;;22.34;33.10;94803.59;4955036;28;20500;-82
2021/06/14 09:07:56;;;;;;;2.17;1.58;;;;;;;22.46;31.83;94798.50;4957696;29;20042;-82
2021/06/14 09:10:38;;;;;;;5.57;2.00;;;;;;;22.48;32.21;94806.13;4941944;29;20102;-82
2021/06/14 09:13:17;;;;;;;9.13;2.10;;;;;;;22.68;32.14;94802.91;4941876;29;20512;-82
2021/06/14 09:15:44;;;;;;;3.88;1.85;;;;;;;22.74;32.16;94810.41;4973206;28;20039;-82
2021/06/14 09:18:26;;;;;;;5.30;1.67;;;;;;;22.55;32.73;94814.41;4939425;29;20054;-82
2021/06/14 09:20:58;;;;;;;5.03;3.30;;;;;;;22.09;34.86;94812.97;4955805;28;20085;-82
2021/06/14 09:23:24;;;;;;;6.28;4.28;;;;;;;21.35;36.55;94810.75;4958380;29;20066;-82
2021/06/14 09:25:50;;;;;;;4.13;1.90;;;;;;;20.74;37.47;94819.94;4973359;23;20051;-82
2021/06/14 09:28:15;;;;;;;7.75;3.50;;;;;;;20.22;40.07;94840.44;4958054;28;20038;-82
2021/06/14 09:30:41;;;;;;;5.57;3.00;;;;;;;19.83;42.51;94850.59;4943336;29;20169;-82
2021/06/14 09:33:25;;;;;;;7.13;2.60;;;;;;;19.64;44.55;94850.63;4937436;29;20035;-82
2021/06/14 09:35:52;;;;;;;6.57;2.42;;;;;;;19.60;46.64;94853.06;4937911;29;20078;-82
2021/06/14 09:38:19;;;;;;;4.00;3.05;;;;;;;19.69;46.87;94840.81;4938982;29;20507;-82
2021/06/14 09:40:51;;;;;;;10.02;2.78;;;;;;;19.85;47.37;94837.91;4937598;29;20063;-83
2021/06/14 09:43:31;;;;;;;7.65;3.20;;;;;;;19.97;47.29;94830.31;4952583;29;20042;-83
2021/06/14 09:45:57;;;;;;;8.27;2.70;;;;;;;20.18;47.96;94839.47;4953090;29;20038;-83
2021/06/14 09:48:24;;;;;;;8.15;3.53;;;;;;;20.39;47.92;94838.03;4921554;29;20086;-82
2021/06/14 09:50:51;;;;;;;5.45;3.83;;;;;;;20.41;46.82;94829.03;4937187;29;20039;-83
2021/06/14 09:53:18;;;;;;;11.23;4.22;;;;;;;20.44;47.33;94844.31;4921997;29;20126;-81
2021/06/14 09:55:44;;;;;;;12.70;5.65;;;;;;;20.42;49.24;94847.25;4920250;29;20032;-84
2021/06/14 09:58:30;;;;;;;10.63;4.97;;;;;;;20.32;48.51;94845.53;4920803;29;20039;-81
2021/06/14 10:00:59;;;;;;;19.05;5.50;;;;;;;20.23;49.25;94852.56;4921338;29;20071;-82
2021/06/14 10:03:48;;;;;;;11.55;5.10;;;;;;;20.04;51.24;94865.06;4937366;29;20086;-83
2021/06/14 10:06:35;;;;;;;10.93;3.90;;;;;;;19.79;51.80;94867.03;5027407;23;20081;-82
2021/06/14 10:09:08;;;;;;;6.53;2.97;;;;;;;19.59;48.81;94854.16;4975329;28;20022;-82
2021/06/14 10:11:35;;;;;;;11.15;3.50;;;;;;;19.36;47.62;94847.88;4955366;29;20039;-82
2021/06/14 10:14:14;;;;;;;13.75;3.83;;;;;;;19.15;52.53;94852.63;4939814;29;20027;-82
2021/06/14 10:16:45;;;;;;;13.60;4.88;;;;;;;19.02;53.45;94863.84;4955271;28;20035;-83
2021/06/14 10:22:13;;;;;;;11.00;4.70;;;;;;;18.69;54.33;94848.97;4928737;29;20522;-83
2021/06/14 10:24:39;;;;;;;12.50;4.45;;;;;;;18.90;53.97;94860.88;4954623;28;20035;-83
2021/06/14 10:27:04;;;;;;;6.72;3.60;;;;;;;19.14;53.63;94843.16;4957054;28;20031;-82
2021/06/14 10:29:29;;;;;;;9.77;3.97;;;;;;;19.40;53.22;94850.72;4971727;28;20045;-82
2021/06/14 10:31:55;;;;;;;8.48;4.70;;;;;;;19.58;54.06;94849.94;4956181;29;20061;-83
2021/06/14 10:34:20;;;;;;;10.32;4.93;;;;;;;19.66;52.42;94840.56;4972161;28;20038;-83
2021/06/14 10:36:53;;;;;;;9.55;4.63;;;;;;;19.67;50.59;94840.28;4970100;28;20035;-83
2021/06/14 10:39:25;;;;;;;6.32;3.90;;;;;;;19.69;50.63;94838.16;4954097;29;20031;-83
2021/06/14 10:42:01;;;;;;;7.25;4.00;;;;;;;19.62;49.88;94840.38;4956242;29;20051;-83
2021/06/14 10:44:26;;;;;;;5.15;2.65;;;;;;;19.65;50.73;94831.88;4955052;29;20491;-83
2021/06/14 10:46:52;;;;;;;5.15;3.33;;;;;;;19.65;51.61;94833.75;4955958;28;20100;-83
2021/06/14 10:49:17;;;;;;;11.98;4.90;;;;;;;19.66;50.98;94830.81;4955499;28;20035;-82
2021/06/14 10:51:56;;;;;;;11.85;6.22;;;;;;;19.73;51.18;94825.19;4955762;29;20035;-83
2021/06/14 10:54:21;;;;;;;12.05;9.10;;;;;;;19.74;49.82;94816.97;4923189;29;20525;-82
2021/06/14 10:56:47;;;;;;;17.38;11.48;;;;;;;19.87;50.43;94818.09;4956612;28;20054;-83
2021/06/14 10:59:15;;;;;;;10.57;6.68;;;;;;;20.00;50.13;94816.53;4956656;28;20027;-84
2021/06/14 11:01:42;;;;;;;17.17;6.18;;;;;;;20.17;47.91;94803.56;4955353;29;20067;-83
2021/06/14 11:04:22;;;;;;;19.70;9.90;;;;;;;20.38;47.18;94810.06;4971415;28;20041;-83
2021/06/14 11:06:54;;;;;;;18.27;8.57;;;;;;;20.54;46.98;94796.59;4964666;28;20019;-83
2021/06/14 11:09:19;;;;;;;17.98;12.13;;;;;;;20.72;45.71;94797.53;4942576;29;20035;-81
2021/06/14 11:11:55;;;;;;;11.13;6.28;;;;;;;20.85;45.96;94800.16;4949080;29;20070;-84
2021/06/14 11:14:31;;;;;;;12.30;3.67;;;;;;;20.92;45.48;94792.59;4956751;28;20110;-84
2021/06/14 11:17:02;;;;;;;9.73;2.83;;;;;;;20.84;44.60;94795.97;4955895;29;20035;-81
2021/06/14 11:19:37;;;;;;;10.95;2.80;;;;;;;20.85;44.42;94802.81;4968205;28;20035;-83
2021/06/14 11:22:03;;;;;;;7.82;2.38;;;;;;;20.93;44.78;94791.53;4938874;29;20070;-83
2021/06/14 11:24:40;;;;;;;11.27;3.33;;;;;;;20.95;44.94;94792.00;4954174;28;20062;-84
2021/06/14 11:27:08;;;;;;;6.50;2.17;;;;;;;20.93;43.14;94783.59;4955447;29;20038;-84
2021/06/14 11:29:44;;;;;;;8.80;2.55;;;;;;;20.89;43.53;94777.34;4943216;29;20067;-82
2021/06/14 11:32:10;;;;;;;5.25;2.30;;;;;;;20.78;42.46;94781.28;4972407;29;20031;-82
2021/06/14 11:34:42;;;;;;;4.72;2.33;;;;;;;20.78;39.80;94773.34;4972810;28;20058;-82
2021/06/14 11:37:08;;;;;;;6.05;2.47;;;;;;;20.47;41.13;94780.31;4963032;29;20118;-83
2021/06/14 11:39:33;;;;;;;5.60;2.10;;;;;;;20.50;43.11;94774.44;4938300;29;20058;-83
2021/06/14 12:07:48;;;;;;;9.73;2.63;;;;;;;20.33;40.01;94743.31;5172474;27;20394;-83
2021/06/14 12:10:15;;;;;;;7.57;2.28;;;;;;;20.37;41.51;94747.75;5156474;27;20031;-84
2021/06/14 12:12:41;;;;;;;9.88;2.38;;;;;;;20.55;41.74;94742.66;5119284;27;20065;-84
2021/06/14 12:15:08;;;;;;;9.23;2.90;;;;;;;20.47;41.66;94748.63;5149356;27;20045;-83
2021/06/14 12:17:42;;;;;;;5.30;2.10;;;;;;;20.50;40.77;94734.81;5151675;27;20038;-83
2021/06/14 12:20:08;;;;;;;4.35;2.70;;;;;;;20.44;39.56;94743.94;5134311;27;20027;-84
2021/06/14 12:22:34;;;;;;;6.63;2.30;;;;;;;20.46;41.11;94732.00;5133906;27;20030;-83
2021/06/14 12:25:09;;;;;;;10.18;2.90;;;;;;;20.49;40.28;94738.53;5115872;27;20094;-84
2021/06/14 12:27:34;;;;;;;6.88;5.97;;;;;;;20.58;42.37;94729.63;5150462;27;20026;-82